Time;durP1;ratioP1;P1;durP2;ratioP2;P2;SDS_P1;SDS_P2;PMS_P1;PMS_P2;Temp;Humidity;BMP_temperature;BMP_pressure;BME280_temperature;BME280_humidity;BME280_pressure;Samples;Min_cycle;Max_cycle;Signal;HPM_P1;HPM_P2
2022/04/19 19:51:01;;;;;;;;;5.00;5.00;;;;;16.98;43.94;101007.47;5133197;27;45465;-80
2022/04/19 19:53:27;;;;;;;;;5.00;4.00;;;;;17.28;43.68;101031.50;5087580;27;45403;-78
2022/04/19 19:55:52;;;;;;;;;5.00;3.00;;;;;17.43;43.40;101034.97;5089274;27;45530;-79
2022/04/19 19:58:17;;;;;;;;;3.33;3.33;;;;;17.55;43.03;101030.56;5089072;27;45552;-79
2022/04/19 20:00:43;;;;;;;;;1.67;1.67;;;;;17.40;42.38;100988.53;5084208;27;45462;-80
2022/04/19 20:03:08;;;;;;;;;3.67;2.67;;;;;17.46;42.04;100983.53;5096866;27;45566;-79
2022/04/19 20:05:33;;;;;;;;;3.33;3.33;;;;;17.81;41.81;101022.56;5095584;27;45437;-79
2022/04/19 20:08:01;;;;;;;;;3.00;3.00;;;;;17.76;41.69;101001.28;5082355;27;46527;-80
2022/04/19 20:10:28;;;;;;;;;2.33;2.33;;;;;17.79;41.08;100998.34;5088608;27;46312;-79
2022/04/19 20:12:53;;;;;;;;;4.00;2.00;;;;;17.99;41.02;101018.56;5089620;27;45628;-79
2022/04/19 20:15:19;;;;;;;;;4.00;2.67;;;;;18.04;40.75;101020.94;5085251;27;45561;-80
2022/04/19 20:17:46;;;;;;;;;2.00;2.00;;;;;18.07;40.21;101018.88;5085399;27;45477;-80
2022/04/19 20:20:12;;;;;;;;;2.67;2.67;;;;;17.98;40.04;101005.19;5087873;27;46650;-80
2022/04/19 20:22:40;;;;;;;;;2.67;2.67;;;;;18.02;39.67;100999.47;5091661;27;45875;-80
2022/04/19 20:25:07;;;;;;;;;1.00;1.00;;;;;18.04;39.79;101011.00;5088526;27;45630;-80
2022/04/19 20:27:33;;;;;;;;;4.33;4.00;;;;;18.09;39.57;101014.25;5088789;27;45597;-80
2022/04/19 20:29:58;;;;;;;;;5.00;2.00;;;;;18.13;39.43;101015.75;5085915;27;47297;-80
2022/04/19 20:32:24;;;;;;;;;3.00;3.00;;;;;17.70;39.25;100950.50;5079673;27;46718;-80
2022/04/19 20:34:50;;;;;;;;;4.67;3.67;;;;;18.12;39.23;101023.94;5079787;27;45808;-80
2022/04/19 20:37:15;;;;;;;;;3.33;2.00;;;;;17.82;39.32;100968.53;5083321;27;45721;-79
2022/04/19 20:39:40;;;;;;;;;4.67;2.33;;;;;18.01;39.40;101002.28;5082776;27;45459;-79
2022/04/19 20:42:06;;;;;;;;;1.00;1.00;;;;;18.02;39.47;101014.78;5076267;27;45519;-79
2022/04/19 20:44:31;;;;;;;;;5.67;2.67;;;;;18.00;39.20;101005.94;5081633;27;45534;-79
2022/04/19 20:52:25;;;;;;;;;3.00;3.00;;;;;17.98;39.37;101010.56;5095488;27;45522;-79
2022/04/19 20:54:50;;;;;;;;;2.00;2.00;;;;;17.95;39.59;101013.50;5103421;27;45765;-79
2022/04/19 20:57:15;;;;;;;;;2.00;2.00;;;;;17.66;39.27;100968.72;5101486;27;45781;-79
2022/04/19 20:59:48;;;;;;;;;6.00;3.00;;;;;17.72;39.37;100975.50;5099220;27;45905;-79
2022/04/19 21:02:14;;;;;;;;;4.33;2.67;;;;;17.70;39.68;100975.63;5085752;27;45505;-78
2022/04/19 21:04:39;;;;;;;;;3.67;3.67;;;;;17.63;39.86;100970.72;5088044;27;45733;-78
2022/04/19 21:07:04;;;;;;;;;3.67;3.00;;;;;17.66;40.13;100975.94;5086287;27;45832;-80
2022/04/19 21:09:30;;;;;;;;;5.67;5.67;;;;;17.50;40.10;100950.03;5066680;27;46403;-80
2022/04/19 21:11:55;;;;;;;;;8.33;7.00;;;;;17.81;40.06;100996.44;5089417;27;45401;-80
2022/04/19 21:14:20;;;;;;;;;10.33;5.67;;;;;17.56;40.14;100959.53;5084172;27;45512;-80
2022/04/19 21:16:46;;;;;;;;;6.33;4.33;;;;;17.76;40.29;101000.41;5086618;27;45624;-80
2022/04/19 21:19:11;;;;;;;;;6.67;5.67;;;;;17.36;40.44;100931.28;5069148;27;47434;-80
2022/04/19 21:21:36;;;;;;;;;4.67;4.67;;;;;17.73;40.25;100996.09;5089453;27;45568;-80
2022/04/19 21:24:02;;;;;;;;;5.00;3.67;;;;;17.71;40.56;100993.50;5075786;27;45454;-79
2022/04/19 21:26:27;;;;;;;;;4.33;3.00;;;;;17.43;40.79;100947.88;5084531;27;45751;-78
2022/04/19 21:28:53;;;;;;;;;5.00;4.00;;;;;17.67;40.67;100993.81;5085564;27;46090;-78
2022/04/19 21:31:19;;;;;;;;;4.00;4.00;;;;;17.47;40.91;100960.19;5081986;27;45909;-78
2022/04/19 21:33:44;;;;;;;;;6.33;4.67;;;;;17.26;40.89;100922.97;5089734;27;45452;-80
2022/04/19 21:36:10;;;;;;;;;4.00;3.67;;;;;17.60;41.14;100995.22;5072748;27;45578;-79
2022/04/19 21:38:35;;;;;;;;;4.67;3.33;;;;;17.58;41.18;101000.69;5087110;27;46141;-79
2022/04/19 21:41:01;;;;;;;;;4.00;3.67;;;;;17.53;41.61;101008.25;5092739;27;45377;-79
2022/04/19 21:43:26;;;;;;;;;6.00;6.00;;;;;17.39;41.58;100993.03;5086881;27;45792;-79
2022/04/19 21:45:51;;;;;;;;;6.67;5.67;;;;;17.43;41.92;101005.31;5093419;27;45353;-79
2022/04/19 21:48:17;;;;;;;;;4.67;4.67;;;;;17.38;42.00;101007.47;5088621;27;45991;-78
2022/04/19 21:50:42;;;;;;;;;7.67;4.00;;;;;17.31;42.32;101003.47;5090734;27;45581;-78
2022/04/19 21:53:07;;;;;;;;;5.00;5.00;;;;;17.04;42.04;100955.91;5086961;27;45401;-79
2022/04/19 21:55:33;;;;;;;;;6.00;4.33;;;;;17.29;42.56;101002.72;5075027;27;45786;-79
2022/04/19 21:57:58;;;;;;;;;9.00;6.67;;;;;17.25;42.78;101014.66;5094218;27;45499;-78
2022/04/19 22:00:53;;;;;;;;;6.67;6.00;;;;;17.22;42.72;101010.34;5089578;27;55631;-78
2022/04/19 22:03:18;;;;;;;;;7.33;7.33;;;;;16.95;42.79;100966.41;5087578;27;45392;-78
2022/04/19 22:05:43;;;;;;;;;6.67;6.67;;;;;17.17;42.97;101017.00;5098084;27;45199;-77
2022/04/19 22:08:09;;;;;;;;;5.33;5.00;;;;;17.04;43.07;100999.00;5099002;27;46003;-79
2022/04/19 22:10:34;;;;;;;;;6.33;6.33;;;;;17.10;42.97;101016.56;5068271;27;46266;-78
2022/04/19 22:13:00;;;;;;;;;5.00;5.00;;;;;17.07;43.26;101003.31;5083588;27;45426;-79
2022/04/19 22:15:25;;;;;;;;;8.33;6.67;;;;;16.80;43.14;100971.84;5089383;27;45488;-79
2022/04/19 22:17:51;;;;;;;;;8.33;6.00;;;;;16.96;43.39;101003.16;5095011;27;46181;-78
2022/04/19 22:20:16;;;;;;;;;5.67;5.67;;;;;16.92;43.68;100998.94;5091315;27;45386;-78
2022/04/19 22:22:41;;;;;;;;;7.67;7.67;;;;;16.84;43.63;100988.66;5085165;27;45786;-78
2022/04/19 22:25:07;;;;;;;;;5.00;5.00;;;;;16.88;43.77;100993.75;5084807;27;45518;-78
2022/04/19 22:27:33;;;;;;;;;9.67;6.33;;;;;16.85;43.95;100985.00;5091354;27;46235;-80
2022/04/19 22:29:58;;;;;;;;;10.00;7.33;;;;;16.83;44.43;100981.53;5098421;27;45336;-79
2022/04/19 22:32:23;;;;;;;;;6.33;5.33;;;;;16.62;44.15;100955.06;5082015;27;45382;-79
2022/04/19 22:34:49;;;;;;;;;9.33;7.33;;;;;16.76;44.26;100988.25;5081688;27;45592;-80
2022/04/19 22:37:14;;;;;;;;;6.33;6.00;;;;;16.58;44.17;100960.75;5092651;27;46203;-79
2022/04/19 22:39:42;;;;;;;;;7.33;6.67;;;;;16.65;44.33;100975.53;5087329;27;45278;-79
2022/04/19 22:42:11;;;;;;;;;8.00;8.00;;;;;16.36;44.49;100927.16;5070059;28;45852;-79
2022/04/19 22:44:36;;;;;;;;;5.00;5.00;;;;;16.63;44.77;100983.69;5078533;27;45433;-80
2022/04/19 22:47:02;;;;;;;;;9.00;9.00;;;;;16.44;44.63;100956.28;5090102;27;47271;-80
2022/04/19 22:49:27;;;;;;;;;7.67;7.33;;;;;16.43;45.02;100951.84;5085211;27;45472;-78
2022/04/19 22:51:53;;;;;;;;;8.00;6.00;;;;;16.50;44.80;100984.59;5087747;27;45732;-79
2022/04/19 22:54:18;;;;;;;;;6.00;6.00;;;;;16.19;45.10;100932.78;5092392;27;46463;-79
2022/04/19 22:56:44;;;;;;;;;11.00;8.00;;;;;16.28;45.34;100952.84;5080638;27;45361;-79
2022/04/19 22:59:10;;;;;;;;;6.00;6.00;;;;;16.18;45.61;100936.44;5093940;27;45352;-79
2022/04/19 23:01:35;;;;;;;;;11.00;8.00;;;;;16.41;45.43;100975.28;5085406;27;45453;-79
2022/04/19 23:04:00;;;;;;;;;9.00;8.33;;;;;16.38;45.53;100976.34;5060731;27;45491;-79
2022/04/19 23:06:25;;;;;;;;;9.00;7.33;;;;;16.24;45.77;100955.69;5077411;28;49064;-79
2022/04/19 23:08:51;;;;;;;;;15.33;10.00;;;;;16.32;45.79;100974.06;5089687;27;45685;-79
2022/04/19 23:11:16;;;;;;;;;9.33;8.33;;;;;16.29;45.70;100971.56;5077033;27;49459;-79
2022/04/19 23:13:42;;;;;;;;;6.67;6.00;;;;;16.12;46.07;100950.25;5083754;27;45505;-79
2022/04/19 23:16:07;;;;;;;;;9.00;7.00;;;;;16.17;46.03;100961.59;5066874;27;47596;-79
2022/04/19 23:18:33;;;;;;;;;10.00;9.67;;;;;15.98;46.26;100932.31;5098006;27;45257;-79
2022/04/19 23:20:58;;;;;;;;;14.33;9.67;;;;;16.01;46.11;100940.19;5080371;27;45354;-79
2022/04/19 23:23:23;;;;;;;;;8.67;8.00;;;;;16.16;46.70;100968.78;5092173;27;45210;-79
2022/04/19 23:27:52;;;;;;;;;10.67;10.33;;;;;15.90;46.39;100926.56;5090161;27;45223;-79
2022/04/19 23:28:34;;;;;;;;;10.00;8.33;;;;;16.07;46.84;100965.84;5076905;27;45573;-79
2022/04/19 23:30:59;;;;;;;;;8.67;8.67;;;;;15.94;46.86;100952.28;5093256;27;45613;-79
2022/04/19 23:33:25;;;;;;;;;12.00;8.67;;;;;15.99;46.93;100955.53;5091677;27;45554;-79
2022/04/19 23:35:50;;;;;;;;;12.33;11.00;;;;;15.82;47.24;100938.63;5077335;27;45657;-79
2022/04/19 23:38:15;;;;;;;;;10.67;10.00;;;;;15.90;47.26;100957.00;5059076;28;45412;-79
2022/04/19 23:40:41;;;;;;;;;11.00;9.33;;;;;15.89;47.37;100955.25;5087447;27;49748;-79
2022/04/19 23:43:07;;;;;;;;;13.33;10.33;;;;;15.73;47.47;100928.50;5059902;27;45501;-79
2022/04/19 23:45:32;;;;;;;;;12.67;11.00;;;;;15.85;47.65;100955.53;5081322;27;45539;-79
2022/04/19 23:47:58;;;;;;;;;13.67;9.67;;;;;15.53;47.64;100904.66;5086612;27;45357;-79
2022/04/19 23:50:23;;;;;;;;;13.33;11.00;;;;;15.81;47.77;100946.81;5097526;27;45531;-79
2022/04/19 23:52:49;;;;;;;;;11.33;10.67;;;;;15.56;47.78;100904.44;5098075;27;45580;-79
2022/04/19 23:55:14;;;;;;;;;12.33;11.67;;;;;15.58;47.91;100913.28;5097139;27;45407;-79
2022/04/19 23:57:39;;;;;;;;;10.67;10.67;;;;;15.54;47.98;100907.22;5097772;27;45462;-79
